sensor_id;sensor_type;location;lat;lon;timestamp;P1;durP1;ratioP1;P2;durP2;ratioP2
9884;SDS011;4981;50.966;4.842;2023-02-23T00:01:11;74.33;;;40.67;;
9884;SDS011;4981;50.966;4.842;2023-02-23T00:03:40;71.10;;;39.27;;
9884;SDS011;4981;50.966;4.842;2023-02-23T00:06:07;78.87;;;42.77;;
9884;SDS011;4981;50.966;4.842;2023-02-23T00:08:36;78.40;;;42.33;;
9884;SDS011;4981;50.966;4.842;2023-02-23T00:11:06;73.57;;;41.83;;
9884;SDS011;4981;50.966;4.842;2023-02-23T00:13:35;73.47;;;40.93;;
9884;SDS011;4981;50.966;4.842;2023-02-23T00:16:04;77.90;;;41.60;;
9884;SDS011;4981;50.966;4.842;2023-02-23T00:18:32;79.13;;;41.67;;
9884;SDS011;4981;50.966;4.842;2023-02-23T00:21:09;84.63;;;42.80;;
9884;SDS011;4981;50.966;4.842;2023-02-23T00:23:46;79.90;;;42.60;;
9884;SDS011;4981;50.966;4.842;2023-02-23T00:26:15;73.57;;;41.33;;
9884;SDS011;4981;50.966;4.842;2023-02-23T00:28:45;79.17;;;42.47;;
9884;SDS011;4981;50.966;4.842;2023-02-23T00:31:13;77.93;;;42.60;;
9884;SDS011;4981;50.966;4.842;2023-02-23T00:33:41;76.67;;;41.17;;
9884;SDS011;4981;50.966;4.842;2023-02-23T00:36:09;75.83;;;42.20;;
9884;SDS011;4981;50.966;4.842;2023-02-23T00:38:38;74.90;;;40.37;;
9884;SDS011;4981;50.966;4.842;2023-02-23T01:09:18;66.73;;;37.73;;
9884;SDS011;4981;50.966;4.842;2023-02-23T01:11:52;68.30;;;37.50;;
9884;SDS011;4981;50.966;4.842;2023-02-23T01:14:20;64.13;;;37.50;;
9884;SDS011;4981;50.966;4.842;2023-02-23T01:16:48;63.43;;;37.87;;
9884;SDS011;4981;50.966;4.842;2023-02-23T01:19:15;70.73;;;38.30;;
9884;SDS011;4981;50.966;4.842;2023-02-23T01:21:43;75.00;;;40.03;;
9884;SDS011;4981;50.966;4.842;2023-02-23T01:24:11;74.60;;;41.40;;
9884;SDS011;4981;50.966;4.842;2023-02-23T01:26:41;61.37;;;37.40;;
9884;SDS011;4981;50.966;4.842;2023-02-23T01:29:11;70.23;;;38.70;;
9884;SDS011;4981;50.966;4.842;2023-02-23T01:31:40;70.80;;;37.50;;
9884;SDS011;4981;50.966;4.842;2023-02-23T01:34:10;70.40;;;38.50;;
9884;SDS011;4981;50.966;4.842;2023-02-23T01:36:39;69.80;;;40.53;;
9884;SDS011;4981;50.966;4.842;2023-02-23T01:39:09;62.77;;;37.53;;
9884;SDS011;4981;50.966;4.842;2023-02-23T01:41:38;63.13;;;36.80;;
9884;SDS011;4981;50.966;4.842;2023-02-23T01:44:57;61.77;;;37.30;;
9884;SDS011;4981;50.966;4.842;2023-02-23T01:47:16;61.30;;;36.93;;
9884;SDS011;4981;50.966;4.842;2023-02-23T01:49:44;59.27;;;36.17;;
9884;SDS011;4981;50.966;4.842;2023-02-23T01:52:13;66.40;;;37.70;;
9884;SDS011;4981;50.966;4.842;2023-02-23T01:54:43;56.03;;;36.93;;
9884;SDS011;4981;50.966;4.842;2023-02-23T01:57:15;65.00;;;36.90;;
9884;SDS011;4981;50.966;4.842;2023-02-23T01:59:43;60.33;;;35.43;;
9884;SDS011;4981;50.966;4.842;2023-02-23T02:02:11;68.37;;;35.70;;
9884;SDS011;4981;50.966;4.842;2023-02-23T02:04:41;68.27;;;37.57;;
9884;SDS011;4981;50.966;4.842;2023-02-23T02:07:09;65.00;;;36.93;;
9884;SDS011;4981;50.966;4.842;2023-02-23T02:09:38;65.73;;;37.07;;
9884;SDS011;4981;50.966;4.842;2023-02-23T02:12:26;64.70;;;36.23;;
9884;SDS011;4981;50.966;4.842;2023-02-23T02:14:54;66.83;;;35.43;;
9884;SDS011;4981;50.966;4.842;2023-02-23T02:17:26;63.27;;;36.30;;
9884;SDS011;4981;50.966;4.842;2023-02-23T02:20:17;61.33;;;35.57;;
9884;SDS011;4981;50.966;4.842;2023-02-23T02:26:29;70.07;;;35.67;;
9884;SDS011;4981;50.966;4.842;2023-02-23T02:29:06;62.03;;;34.13;;
9884;SDS011;4981;50.966;4.842;2023-02-23T02:35:35;58.43;;;34.53;;
9884;SDS011;4981;50.966;4.842;2023-02-23T02:38:27;55.70;;;32.40;;
9884;SDS011;4981;50.966;4.842;2023-02-23T02:41:01;56.63;;;31.63;;
9884;SDS011;4981;50.966;4.842;2023-02-23T02:43:35;54.30;;;32.37;;
9884;SDS011;4981;50.966;4.842;2023-02-23T02:46:10;55.53;;;31.60;;
9884;SDS011;4981;50.966;4.842;2023-02-23T02:48:44;52.70;;;31.47;;
9884;SDS011;4981;50.966;4.842;2023-02-23T02:51:19;56.07;;;32.70;;
9884;SDS011;4981;50.966;4.842;2023-02-23T02:53:55;55.20;;;30.73;;
9884;SDS011;4981;50.966;4.842;2023-02-23T02:56:30;50.73;;;30.20;;
9884;SDS011;4981;50.966;4.842;2023-02-23T02:59:04;50.83;;;30.73;;
9884;SDS011;4981;50.966;4.842;2023-02-23T03:01:46;55.33;;;33.33;;
9884;SDS011;4981;50.966;4.842;2023-02-23T03:04:31;50.53;;;30.23;;
9884;SDS011;4981;50.966;4.842;2023-02-23T03:07:17;56.70;;;30.73;;
9884;SDS011;4981;50.966;4.842;2023-02-23T03:10:09;51.10;;;30.47;;
9884;SDS011;4981;50.966;4.842;2023-02-23T03:13:05;54.23;;;31.57;;
9884;SDS011;4981;50.966;4.842;2023-02-23T03:16:02;52.40;;;31.13;;
9884;SDS011;4981;50.966;4.842;2023-02-23T03:19:00;49.83;;;30.80;;
9884;SDS011;4981;50.966;4.842;2023-02-23T03:21:54;54.30;;;30.03;;
9884;SDS011;4981;50.966;4.842;2023-02-23T03:24:46;45.20;;;28.70;;
9884;SDS011;4981;50.966;4.842;2023-02-23T03:27:41;48.23;;;28.60;;
9884;SDS011;4981;50.966;4.842;2023-02-23T03:30:32;49.83;;;30.40;;
9884;SDS011;4981;50.966;4.842;2023-02-23T03:33:22;41.33;;;27.47;;
9884;SDS011;4981;50.966;4.842;2023-02-23T03:36:16;43.60;;;28.37;;
9884;SDS011;4981;50.966;4.842;2023-02-23T03:39:09;45.00;;;28.07;;
9884;SDS011;4981;50.966;4.842;2023-02-23T03:41:58;46.03;;;27.10;;
9884;SDS011;4981;50.966;4.842;2023-02-23T03:44:49;43.93;;;27.07;;
9884;SDS011;4981;50.966;4.842;2023-02-23T03:47:37;43.37;;;26.67;;
9884;SDS011;4981;50.966;4.842;2023-02-23T03:50:25;41.60;;;26.43;;
9884;SDS011;4981;50.966;4.842;2023-02-23T03:53:12;41.37;;;26.40;;
9884;SDS011;4981;50.966;4.842;2023-02-23T03:55:58;51.33;;;26.50;;
9884;SDS011;4981;50.966;4.842;2023-02-23T03:58:44;56.47;;;29.60;;
9884;SDS011;4981;50.966;4.842;2023-02-23T04:01:34;48.50;;;28.53;;
9884;SDS011;4981;50.966;4.842;2023-02-23T04:04:21;65.73;;;35.70;;
9884;SDS011;4981;50.966;4.842;2023-02-23T04:07:08;73.37;;;37.70;;
9884;SDS011;4981;50.966;4.842;2023-02-23T04:09:56;70.43;;;37.97;;
9884;SDS011;4981;50.966;4.842;2023-02-23T04:12:42;70.30;;;34.50;;
9884;SDS011;4981;50.966;4.842;2023-02-23T04:15:34;70.43;;;35.07;;
9884;SDS011;4981;50.966;4.842;2023-02-23T04:18:04;85.60;;;39.37;;
9884;SDS011;4981;50.966;4.842;2023-02-23T04:20:32;91.13;;;40.33;;
9884;SDS011;4981;50.966;4.842;2023-02-23T04:23:00;78.40;;;37.27;;
9884;SDS011;4981;50.966;4.842;2023-02-23T04:25:27;79.33;;;37.87;;
9884;SDS011;4981;50.966;4.842;2023-02-23T04:27:55;87.13;;;38.37;;
9884;SDS011;4981;50.966;4.842;2023-02-23T04:30:23;84.23;;;37.73;;
9884;SDS011;4981;50.966;4.842;2023-02-23T04:32:52;82.93;;;36.53;;
9884;SDS011;4981;50.966;4.842;2023-02-23T04:35:21;80.63;;;35.33;;
9884;SDS011;4981;50.966;4.842;2023-02-23T04:37:48;86.50;;;36.13;;
9884;SDS011;4981;50.966;4.842;2023-02-23T04:40:16;74.77;;;33.97;;
9884;SDS011;4981;50.966;4.842;2023-02-23T04:42:44;80.70;;;32.43;;
9884;SDS011;4981;50.966;4.842;2023-02-23T04:45:11;87.60;;;32.80;;
9884;SDS011;4981;50.966;4.842;2023-02-23T04:47:38;80.93;;;33.53;;
9884;SDS011;4981;50.966;4.842;2023-02-23T04:50:06;81.37;;;33.97;;
9884;SDS011;4981;50.966;4.842;2023-02-23T04:52:36;76.03;;;32.77;;
9884;SDS011;4981;50.966;4.842;2023-02-23T04:55:04;64.73;;;30.33;;
9884;SDS011;4981;50.966;4.842;2023-02-23T04:57:32;69.10;;;29.90;;
9884;SDS011;4981;50.966;4.842;2023-02-23T05:00:00;63.80;;;28.30;;
9884;SDS011;4981;50.966;4.842;2023-02-23T05:02:28;60.57;;;29.53;;
9884;SDS011;4981;50.966;4.842;2023-02-23T05:04:56;79.50;;;29.90;;
9884;SDS011;4981;50.966;4.842;2023-02-23T05:07:23;92.73;;;30.37;;
9884;SDS011;4981;50.966;4.842;2023-02-23T05:09:52;77.17;;;29.70;;
9884;SDS011;4981;50.966;4.842;2023-02-23T05:12:19;66.73;;;30.93;;
9884;SDS011;4981;50.966;4.842;2023-02-23T05:14:47;64.23;;;30.83;;
9884;SDS011;4981;50.966;4.842;2023-02-23T05:17:15;64.30;;;28.60;;
9884;SDS011;4981;50.966;4.842;2023-02-23T05:19:42;64.70;;;28.57;;
9884;SDS011;4981;50.966;4.842;2023-02-23T05:22:10;60.77;;;28.20;;
9884;SDS011;4981;50.966;4.842;2023-02-23T05:24:37;68.77;;;28.57;;
9884;SDS011;4981;50.966;4.842;2023-02-23T05:27:06;62.90;;;29.60;;
9884;SDS011;4981;50.966;4.842;2023-02-23T05:29:34;60.73;;;29.00;;
9884;SDS011;4981;50.966;4.842;2023-02-23T05:32:02;70.17;;;31.57;;
9884;SDS011;4981;50.966;4.842;2023-02-23T05:34:29;65.07;;;32.63;;
9884;SDS011;4981;50.966;4.842;2023-02-23T05:36:56;71.07;;;28.37;;
9884;SDS011;4981;50.966;4.842;2023-02-23T05:39:24;65.80;;;29.70;;
9884;SDS011;4981;50.966;4.842;2023-02-23T05:41:51;64.07;;;29.83;;
9884;SDS011;4981;50.966;4.842;2023-02-23T05:44:20;70.77;;;31.00;;
9884;SDS011;4981;50.966;4.842;2023-02-23T05:46:48;65.33;;;29.83;;
9884;SDS011;4981;50.966;4.842;2023-02-23T05:49:15;72.10;;;31.77;;
9884;SDS011;4981;50.966;4.842;2023-02-23T05:51:43;69.67;;;30.43;;
9884;SDS011;4981;50.966;4.842;2023-02-23T05:54:10;66.37;;;29.70;;
9884;SDS011;4981;50.966;4.842;2023-02-23T05:56:38;82.23;;;33.93;;
9884;SDS011;4981;50.966;4.842;2023-02-23T05:59:05;73.27;;;31.53;;
9884;SDS011;4981;50.966;4.842;2023-02-23T06:01:34;74.60;;;31.10;;
9884;SDS011;4981;50.966;4.842;2023-02-23T06:04:03;77.10;;;30.90;;
9884;SDS011;4981;50.966;4.842;2023-02-23T06:06:30;68.67;;;29.97;;
9884;SDS011;4981;50.966;4.842;2023-02-23T06:08:58;74.17;;;32.30;;
9884;SDS011;4981;50.966;4.842;2023-02-23T06:11:25;72.87;;;31.47;;
9884;SDS011;4981;50.966;4.842;2023-02-23T06:13:53;81.20;;;32.83;;
9884;SDS011;4981;50.966;4.842;2023-02-23T06:16:21;84.30;;;32.53;;
9884;SDS011;4981;50.966;4.842;2023-02-23T06:18:50;84.67;;;32.83;;
9884;SDS011;4981;50.966;4.842;2023-02-23T06:21:17;82.97;;;31.90;;
9884;SDS011;4981;50.966;4.842;2023-02-23T06:23:45;74.57;;;32.37;;
9884;SDS011;4981;50.966;4.842;2023-02-23T06:26:12;87.23;;;32.97;;
9884;SDS011;4981;50.966;4.842;2023-02-23T06:28:40;75.23;;;33.67;;
9884;SDS011;4981;50.966;4.842;2023-02-23T06:31:07;82.53;;;33.57;;
9884;SDS011;4981;50.966;4.842;2023-02-23T06:33:35;82.57;;;33.30;;
9884;SDS011;4981;50.966;4.842;2023-02-23T06:36:05;81.70;;;33.57;;
9884;SDS011;4981;50.966;4.842;2023-02-23T06:38:34;79.80;;;35.47;;
9884;SDS011;4981;50.966;4.842;2023-02-23T06:41:05;87.27;;;38.20;;
9884;SDS011;4981;50.966;4.842;2023-02-23T06:43:33;84.07;;;36.67;;
9884;SDS011;4981;50.966;4.842;2023-02-23T06:46:00;84.23;;;35.10;;
9884;SDS011;4981;50.966;4.842;2023-02-23T06:48:27;85.00;;;35.80;;
9884;SDS011;4981;50.966;4.842;2023-02-23T06:50:56;90.67;;;36.77;;
9884;SDS011;4981;50.966;4.842;2023-02-23T06:53:26;95.23;;;40.53;;
9884;SDS011;4981;50.966;4.842;2023-02-23T06:55:54;77.27;;;37.13;;
9884;SDS011;4981;50.966;4.842;2023-02-23T06:58:21;80.00;;;36.70;;
9884;SDS011;4981;50.966;4.842;2023-02-23T07:00:49;77.23;;;37.67;;
9884;SDS011;4981;50.966;4.842;2023-02-23T07:03:18;85.80;;;37.53;;
9884;SDS011;4981;50.966;4.842;2023-02-23T07:05:45;85.93;;;38.17;;
9884;SDS011;4981;50.966;4.842;2023-02-23T07:08:14;83.07;;;39.93;;
9884;SDS011;4981;50.966;4.842;2023-02-23T07:10:44;86.60;;;38.63;;
9884;SDS011;4981;50.966;4.842;2023-02-23T07:13:11;89.30;;;40.13;;
9884;SDS011;4981;50.966;4.842;2023-02-23T07:15:39;91.43;;;40.57;;
9884;SDS011;4981;50.966;4.842;2023-02-23T07:18:07;90.70;;;41.83;;
9884;SDS011;4981;50.966;4.842;2023-02-23T07:20:35;91.53;;;41.80;;
9884;SDS011;4981;50.966;4.842;2023-02-23T07:23:02;85.03;;;38.97;;
9884;SDS011;4981;50.966;4.842;2023-02-23T07:25:30;82.93;;;40.33;;
9884;SDS011;4981;50.966;4.842;2023-02-23T07:27:58;83.70;;;39.53;;
9884;SDS011;4981;50.966;4.842;2023-02-23T07:30:26;88.63;;;40.50;;
9884;SDS011;4981;50.966;4.842;2023-02-23T07:32:53;82.63;;;40.17;;
9884;SDS011;4981;50.966;4.842;2023-02-23T07:35:21;88.27;;;39.43;;
9884;SDS011;4981;50.966;4.842;2023-02-23T07:37:48;82.63;;;39.97;;
9884;SDS011;4981;50.966;4.842;2023-02-23T07:40:16;84.67;;;40.33;;
9884;SDS011;4981;50.966;4.842;2023-02-23T07:42:44;82.73;;;41.10;;
9884;SDS011;4981;50.966;4.842;2023-02-23T07:45:13;80.10;;;40.93;;
9884;SDS011;4981;50.966;4.842;2023-02-23T07:47:41;85.73;;;39.70;;
9884;SDS011;4981;50.966;4.842;2023-02-23T07:50:09;79.47;;;40.03;;
9884;SDS011;4981;50.966;4.842;2023-02-23T07:52:38;81.40;;;39.60;;
9884;SDS011;4981;50.966;4.842;2023-02-23T07:55:08;80.17;;;39.77;;
9884;SDS011;4981;50.966;4.842;2023-02-23T07:57:36;98.23;;;43.07;;
9884;SDS011;4981;50.966;4.842;2023-02-23T08:00:05;81.67;;;41.03;;
9884;SDS011;4981;50.966;4.842;2023-02-23T08:02:35;87.03;;;41.87;;
9884;SDS011;4981;50.966;4.842;2023-02-23T08:05:02;93.73;;;45.20;;
9884;SDS011;4981;50.966;4.842;2023-02-23T08:07:30;93.47;;;45.63;;
9884;SDS011;4981;50.966;4.842;2023-02-23T08:09:58;84.47;;;42.47;;
9884;SDS011;4981;50.966;4.842;2023-02-23T08:12:25;87.67;;;43.90;;
9884;SDS011;4981;50.966;4.842;2023-02-23T08:14:53;60.47;;;27.60;;
9884;SDS011;4981;50.966;4.842;2023-02-23T08:17:20;82.77;;;40.83;;
9884;SDS011;4981;50.966;4.842;2023-02-23T08:19:49;71.87;;;38.37;;
9884;SDS011;4981;50.966;4.842;2023-02-23T08:22:17;67.30;;;38.27;;
9884;SDS011;4981;50.966;4.842;2023-02-23T08:24:45;64.57;;;37.37;;
9884;SDS011;4981;50.966;4.842;2023-02-23T08:27:13;63.63;;;38.03;;
9884;SDS011;4981;50.966;4.842;2023-02-23T08:29:40;69.53;;;39.23;;
9884;SDS011;4981;50.966;4.842;2023-02-23T08:32:07;70.07;;;37.77;;
9884;SDS011;4981;50.966;4.842;2023-02-23T08:34:36;72.60;;;40.10;;
9884;SDS011;4981;50.966;4.842;2023-02-23T08:37:06;73.87;;;39.90;;
9884;SDS011;4981;50.966;4.842;2023-02-23T08:39:34;76.23;;;41.03;;
9884;SDS011;4981;50.966;4.842;2023-02-23T08:42:02;77.97;;;40.40;;
9884;SDS011;4981;50.966;4.842;2023-02-23T08:44:29;80.20;;;42.10;;
9884;SDS011;4981;50.966;4.842;2023-02-23T08:46:57;80.03;;;41.57;;
9884;SDS011;4981;50.966;4.842;2023-02-23T08:49:25;82.90;;;43.23;;
9884;SDS011;4981;50.966;4.842;2023-02-23T08:51:52;73.93;;;40.50;;
9884;SDS011;4981;50.966;4.842;2023-02-23T08:54:22;86.07;;;44.70;;
9884;SDS011;4981;50.966;4.842;2023-02-23T08:56:49;87.73;;;43.77;;
9884;SDS011;4981;50.966;4.842;2023-02-23T08:59:16;80.90;;;42.37;;
9884;SDS011;4981;50.966;4.842;2023-02-23T09:01:44;86.47;;;45.63;;
9884;SDS011;4981;50.966;4.842;2023-02-23T09:04:11;82.80;;;43.80;;
9884;SDS011;4981;50.966;4.842;2023-02-23T09:06:39;83.53;;;43.93;;
9884;SDS011;4981;50.966;4.842;2023-02-23T09:09:06;90.93;;;44.53;;
9884;SDS011;4981;50.966;4.842;2023-02-23T09:11:35;83.57;;;42.73;;
9884;SDS011;4981;50.966;4.842;2023-02-23T09:14:02;92.47;;;45.07;;
9884;SDS011;4981;50.966;4.842;2023-02-23T09:16:29;87.70;;;43.07;;
9884;SDS011;4981;50.966;4.842;2023-02-23T09:18:57;93.63;;;44.23;;
9884;SDS011;4981;50.966;4.842;2023-02-23T09:21:25;81.23;;;41.37;;
9884;SDS011;4981;50.966;4.842;2023-02-23T09:23:54;88.93;;;44.53;;
9884;SDS011;4981;50.966;4.842;2023-02-23T09:26:22;85.80;;;44.30;;
9884;SDS011;4981;50.966;4.842;2023-02-23T09:28:54;81.13;;;41.23;;
9884;SDS011;4981;50.966;4.842;2023-02-23T09:31:23;84.40;;;43.27;;
9884;SDS011;4981;50.966;4.842;2023-02-23T09:33:51;90.33;;;44.57;;
9884;SDS011;4981;50.966;4.842;2023-02-23T09:36:20;80.77;;;42.03;;
9884;SDS011;4981;50.966;4.842;2023-02-23T09:38:49;78.70;;;41.23;;
9884;SDS011;4981;50.966;4.842;2023-02-23T09:41:26;76.97;;;40.93;;
9884;SDS011;4981;50.966;4.842;2023-02-23T09:44:36;78.47;;;42.00;;
9884;SDS011;4981;50.966;4.842;2023-02-23T09:47:17;77.70;;;42.37;;
9884;SDS011;4981;50.966;4.842;2023-02-23T09:49:56;78.53;;;40.93;;
9884;SDS011;4981;50.966;4.842;2023-02-23T09:52:26;77.93;;;40.80;;
9884;SDS011;4981;50.966;4.842;2023-02-23T09:55:02;80.77;;;42.07;;
9884;SDS011;4981;50.966;4.842;2023-02-23T09:57:32;75.40;;;40.03;;
9884;SDS011;4981;50.966;4.842;2023-02-23T10:00:09;77.93;;;41.90;;
9884;SDS011;4981;50.966;4.842;2023-02-23T10:02:50;71.97;;;41.43;;
9884;SDS011;4981;50.966;4.842;2023-02-23T10:05:28;70.53;;;40.10;;
9884;SDS011;4981;50.966;4.842;2023-02-23T10:07:59;68.43;;;38.60;;
9884;SDS011;4981;50.966;4.842;2023-02-23T10:10:31;66.20;;;38.00;;
9884;SDS011;4981;50.966;4.842;2023-02-23T10:13:08;67.13;;;36.47;;
9884;SDS011;4981;50.966;4.842;2023-02-23T10:15:41;66.30;;;36.10;;
9884;SDS011;4981;50.966;4.842;2023-02-23T10:18:13;65.10;;;35.43;;
9884;SDS011;4981;50.966;4.842;2023-02-23T10:20:52;63.67;;;34.10;;
9884;SDS011;4981;50.966;4.842;2023-02-23T10:23:26;60.73;;;34.93;;
9884;SDS011;4981;50.966;4.842;2023-02-23T10:25:56;62.90;;;35.47;;
9884;SDS011;4981;50.966;4.842;2023-02-23T10:28:25;56.67;;;32.97;;
9884;SDS011;4981;50.966;4.842;2023-02-23T10:30:57;62.90;;;35.07;;
9884;SDS011;4981;50.966;4.842;2023-02-23T10:33:25;58.07;;;35.13;;
9884;SDS011;4981;50.966;4.842;2023-02-23T10:35:57;62.70;;;34.50;;
9884;SDS011;4981;50.966;4.842;2023-02-23T10:38:35;60.30;;;34.67;;
9884;SDS011;4981;50.966;4.842;2023-02-23T10:41:03;65.13;;;36.60;;
9884;SDS011;4981;50.966;4.842;2023-02-23T10:43:31;59.50;;;34.10;;
9884;SDS011;4981;50.966;4.842;2023-02-23T10:46:00;59.33;;;33.60;;
9884;SDS011;4981;50.966;4.842;2023-02-23T10:48:31;57.20;;;33.63;;
9884;SDS011;4981;50.966;4.842;2023-02-23T10:51:04;56.23;;;32.57;;
9884;SDS011;4981;50.966;4.842;2023-02-23T10:53:40;57.70;;;33.90;;
9884;SDS011;4981;50.966;4.842;2023-02-23T10:56:08;55.37;;;34.23;;
9884;SDS011;4981;50.966;4.842;2023-02-23T10:58:38;57.50;;;34.60;;
9884;SDS011;4981;50.966;4.842;2023-02-23T11:01:12;59.87;;;36.57;;
9884;SDS011;4981;50.966;4.842;2023-02-23T11:03:41;53.93;;;32.73;;
9884;SDS011;4981;50.966;4.842;2023-02-23T11:08:51;46.53;;;28.80;;
9884;SDS011;4981;50.966;4.842;2023-02-23T11:11:21;51.90;;;32.60;;
9884;SDS011;4981;50.966;4.842;2023-02-23T11:13:53;46.43;;;27.83;;
9884;SDS011;4981;50.966;4.842;2023-02-23T11:16:24;44.50;;;27.90;;
9884;SDS011;4981;50.966;4.842;2023-02-23T11:18:52;43.77;;;28.13;;
9884;SDS011;4981;50.966;4.842;2023-02-23T11:21:22;42.20;;;26.60;;
9884;SDS011;4981;50.966;4.842;2023-02-23T11:23:54;44.47;;;27.00;;
9884;SDS011;4981;50.966;4.842;2023-02-23T11:26:28;43.33;;;26.30;;
9884;SDS011;4981;50.966;4.842;2023-02-23T11:28:59;40.07;;;25.83;;
9884;SDS011;4981;50.966;4.842;2023-02-23T11:31:36;39.23;;;25.43;;
9884;SDS011;4981;50.966;4.842;2023-02-23T11:34:04;44.17;;;26.40;;
9884;SDS011;4981;50.966;4.842;2023-02-23T11:36:33;41.23;;;24.97;;
9884;SDS011;4981;50.966;4.842;2023-02-23T11:39:04;42.37;;;25.93;;
9884;SDS011;4981;50.966;4.842;2023-02-23T11:41:44;38.67;;;25.03;;
9884;SDS011;4981;50.966;4.842;2023-02-23T11:44:18;40.80;;;25.70;;
9884;SDS011;4981;50.966;4.842;2023-02-23T11:46:48;39.30;;;26.10;;
9884;SDS011;4981;50.966;4.842;2023-02-23T11:49:17;42.20;;;25.37;;
9884;SDS011;4981;50.966;4.842;2023-02-23T11:51:47;39.60;;;26.33;;
9884;SDS011;4981;50.966;4.842;2023-02-23T11:54:19;38.57;;;25.67;;
9884;SDS011;4981;50.966;4.842;2023-02-23T11:56:50;40.37;;;26.63;;
9884;SDS011;4981;50.966;4.842;2023-02-23T11:59:20;40.53;;;26.50;;
9884;SDS011;4981;50.966;4.842;2023-02-23T12:01:53;39.60;;;26.47;;
9884;SDS011;4981;50.966;4.842;2023-02-23T12:04:27;44.03;;;27.63;;
9884;SDS011;4981;50.966;4.842;2023-02-23T12:07:18;45.67;;;28.77;;
9884;SDS011;4981;50.966;4.842;2023-02-23T12:09:53;43.77;;;27.37;;
9884;SDS011;4981;50.966;4.842;2023-02-23T12:12:24;42.90;;;29.47;;
9884;SDS011;4981;50.966;4.842;2023-02-23T12:14:55;43.60;;;29.23;;
9884;SDS011;4981;50.966;4.842;2023-02-23T12:17:35;42.40;;;28.90;;
9884;SDS011;4981;50.966;4.842;2023-02-23T12:20:09;42.57;;;28.47;;
9884;SDS011;4981;50.966;4.842;2023-02-23T12:22:42;43.90;;;27.87;;
9884;SDS011;4981;50.966;4.842;2023-02-23T12:25:14;51.27;;;31.10;;
9884;SDS011;4981;50.966;4.842;2023-02-23T12:27:50;43.43;;;29.53;;
9884;SDS011;4981;50.966;4.842;2023-02-23T12:30:25;45.93;;;30.67;;
9884;SDS011;4981;50.966;4.842;2023-02-23T12:33:00;43.83;;;29.93;;
9884;SDS011;4981;50.966;4.842;2023-02-23T12:35:32;45.43;;;30.17;;
9884;SDS011;4981;50.966;4.842;2023-02-23T12:38:09;49.53;;;32.30;;
9884;SDS011;4981;50.966;4.842;2023-02-23T12:40:42;46.93;;;31.23;;
9884;SDS011;4981;50.966;4.842;2023-02-23T12:43:11;49.20;;;32.23;;
9884;SDS011;4981;50.966;4.842;2023-02-23T12:45:44;45.87;;;29.67;;
9884;SDS011;4981;50.966;4.842;2023-02-23T12:48:18;50.13;;;31.93;;
9884;SDS011;4981;50.966;4.842;2023-02-23T12:50:52;52.47;;;33.73;;
9884;SDS011;4981;50.966;4.842;2023-02-23T12:53:23;51.07;;;32.67;;
9884;SDS011;4981;50.966;4.842;2023-02-23T12:56:03;50.23;;;33.37;;
9884;SDS011;4981;50.966;4.842;2023-02-23T12:58:45;52.60;;;35.13;;
9884;SDS011;4981;50.966;4.842;2023-02-23T13:01:16;52.30;;;32.90;;
9884;SDS011;4981;50.966;4.842;2023-02-23T13:03:55;45.70;;;28.67;;
9884;SDS011;4981;50.966;4.842;2023-02-23T13:06:37;53.97;;;33.93;;
9884;SDS011;4981;50.966;4.842;2023-02-23T13:09:15;52.77;;;34.63;;
9884;SDS011;4981;50.966;4.842;2023-02-23T13:11:59;55.87;;;35.00;;
9884;SDS011;4981;50.966;4.842;2023-02-23T13:14:37;52.13;;;34.20;;
9884;SDS011;4981;50.966;4.842;2023-02-23T13:17:14;53.00;;;33.67;;
9884;SDS011;4981;50.966;4.842;2023-02-23T13:19:57;55.30;;;36.90;;
9884;SDS011;4981;50.966;4.842;2023-02-23T13:22:28;54.70;;;36.53;;
9884;SDS011;4981;50.966;4.842;2023-02-23T13:24:58;54.17;;;34.63;;
9884;SDS011;4981;50.966;4.842;2023-02-23T13:27:28;53.47;;;36.93;;
9884;SDS011;4981;50.966;4.842;2023-02-23T13:29:59;53.60;;;35.50;;
9884;SDS011;4981;50.966;4.842;2023-02-23T13:32:29;52.20;;;33.37;;
9884;SDS011;4981;50.966;4.842;2023-02-23T13:35:02;52.27;;;35.40;;
9884;SDS011;4981;50.966;4.842;2023-02-23T13:37:34;52.73;;;35.70;;
9884;SDS011;4981;50.966;4.842;2023-02-23T13:40:14;52.77;;;34.13;;
9884;SDS011;4981;50.966;4.842;2023-02-23T13:42:51;53.40;;;34.13;;
9884;SDS011;4981;50.966;4.842;2023-02-23T13:45:30;49.23;;;33.87;;
9884;SDS011;4981;50.966;4.842;2023-02-23T13:48:12;70.83;;;45.77;;
9884;SDS011;4981;50.966;4.842;2023-02-23T13:50:49;55.93;;;35.50;;
9884;SDS011;4981;50.966;4.842;2023-02-23T13:53:36;58.13;;;36.37;;
9884;SDS011;4981;50.966;4.842;2023-02-23T13:56:06;49.17;;;32.97;;
9884;SDS011;4981;50.966;4.842;2023-02-23T13:58:36;51.87;;;35.43;;
9884;SDS011;4981;50.966;4.842;2023-02-23T14:01:16;49.87;;;32.23;;
9884;SDS011;4981;50.966;4.842;2023-02-23T14:03:51;50.50;;;33.80;;
9884;SDS011;4981;50.966;4.842;2023-02-23T14:06:23;50.90;;;34.53;;
9884;SDS011;4981;50.966;4.842;2023-02-23T14:08:53;47.00;;;32.37;;
9884;SDS011;4981;50.966;4.842;2023-02-23T14:11:36;49.57;;;32.70;;
9884;SDS011;4981;50.966;4.842;2023-02-23T14:14:14;47.20;;;31.70;;
9884;SDS011;4981;50.966;4.842;2023-02-23T14:17:10;47.30;;;30.87;;
9884;SDS011;4981;50.966;4.842;2023-02-23T14:20:23;40.90;;;27.47;;
9884;SDS011;4981;50.966;4.842;2023-02-23T14:25:43;36.97;;;26.03;;
9884;SDS011;4981;50.966;4.842;2023-02-23T14:28:22;39.63;;;27.67;;
9884;SDS011;4981;50.966;4.842;2023-02-23T14:30:58;41.17;;;26.93;;
9884;SDS011;4981;50.966;4.842;2023-02-23T14:33:35;37.47;;;26.23;;
9884;SDS011;4981;50.966;4.842;2023-02-23T14:39:14;34.40;;;23.10;;
9884;SDS011;4981;50.966;4.842;2023-02-23T14:41:46;45.80;;;28.87;;
9884;SDS011;4981;50.966;4.842;2023-02-23T14:44:16;40.07;;;26.77;;
9884;SDS011;4981;50.966;4.842;2023-02-23T14:46:48;41.33;;;27.60;;
9884;SDS011;4981;50.966;4.842;2023-02-23T14:49:24;37.13;;;24.60;;
9884;SDS011;4981;50.966;4.842;2023-02-23T14:51:53;39.63;;;26.03;;
9884;SDS011;4981;50.966;4.842;2023-02-23T14:54:24;35.67;;;25.67;;
9884;SDS011;4981;50.966;4.842;2023-02-23T14:56:55;37.07;;;25.67;;
9884;SDS011;4981;50.966;4.842;2023-02-23T14:59:24;36.17;;;25.23;;
9884;SDS011;4981;50.966;4.842;2023-02-23T15:01:54;36.93;;;24.87;;
9884;SDS011;4981;50.966;4.842;2023-02-23T15:04:26;38.07;;;25.30;;
9884;SDS011;4981;50.966;4.842;2023-02-23T15:06:56;37.37;;;23.90;;
9884;SDS011;4981;50.966;4.842;2023-02-23T15:09:30;36.23;;;23.77;;
9884;SDS011;4981;50.966;4.842;2023-02-23T15:12:02;35.77;;;23.47;;
9884;SDS011;4981;50.966;4.842;2023-02-23T15:14:38;32.83;;;23.33;;
9884;SDS011;4981;50.966;4.842;2023-02-23T15:17:10;33.90;;;23.40;;
9884;SDS011;4981;50.966;4.842;2023-02-23T15:19:40;37.63;;;24.63;;
9884;SDS011;4981;50.966;4.842;2023-02-23T15:22:13;34.83;;;22.73;;
9884;SDS011;4981;50.966;4.842;2023-02-23T15:24:50;35.00;;;23.20;;
9884;SDS011;4981;50.966;4.842;2023-02-23T15:27:19;32.83;;;22.00;;
9884;SDS011;4981;50.966;4.842;2023-02-23T15:29:47;35.90;;;25.00;;
9884;SDS011;4981;50.966;4.842;2023-02-23T15:32:17;33.27;;;22.30;;
9884;SDS011;4981;50.966;4.842;2023-02-23T15:34:47;30.00;;;20.73;;
9884;SDS011;4981;50.966;4.842;2023-02-23T15:37:18;28.70;;;20.83;;
9884;SDS011;4981;50.966;4.842;2023-02-23T15:39:52;29.43;;;24.07;;
9884;SDS011;4981;50.966;4.842;2023-02-23T15:42:24;27.90;;;19.40;;
9884;SDS011;4981;50.966;4.842;2023-02-23T15:44:55;25.20;;;18.77;;
9884;SDS011;4981;50.966;4.842;2023-02-23T15:47:25;24.77;;;18.67;;
9884;SDS011;4981;50.966;4.842;2023-02-23T15:50:06;26.37;;;17.50;;
9884;SDS011;4981;50.966;4.842;2023-02-23T15:52:37;20.27;;;16.30;;
9884;SDS011;4981;50.966;4.842;2023-02-23T15:55:08;21.93;;;16.70;;
9884;SDS011;4981;50.966;4.842;2023-02-23T15:57:43;23.93;;;16.33;;
9884;SDS011;4981;50.966;4.842;2023-02-23T16:00:16;21.77;;;17.30;;
9884;SDS011;4981;50.966;4.842;2023-02-23T16:02:51;22.27;;;18.23;;
9884;SDS011;4981;50.966;4.842;2023-02-23T16:05:24;20.80;;;16.07;;